RYR23BF EGPH-EIDW
Flight info
| Callsign | RYR23BF |
|---|---|
| Flight time | N/A |
| Altitude | 26000 |
| Route | GOSAM P600 TRN DCT BLACA P620 NIMAT NIMAT4L |
| Aircraft | B738/M-SDE3FGILRWY/SB1 |
Departure
| Time | 2026-05-05 17:23 |
|---|---|
| Airport | Edinburgh Airport (EGPH) |
Arrival
| Time | N/A |
|---|---|
| Airport | Dublin Airport (EIDW) |
| Time | Latitude | Longitude | Altitude | Speed | Heading |
|---|---|---|---|---|---|
| 2026-05-05 17:19 | 55.94612 | -3.37817 | 111 ft | 0 kts | 241° |
| 2026-05-05 17:21 | 55.94592 | -3.37893 | 111 ft | 15 kts | 256° |
| 2026-05-05 17:22 | 55.94628 | -3.37988 | 112 ft | 11 kts | 327° |
| 2026-05-05 17:22 | 55.94707 | -3.38056 | 114 ft | 13 kts | 4° |
| 2026-05-05 17:22 | 55.94759 | -3.37956 | 115 ft | 11 kts | 58° |
| 2026-05-05 17:22 | 55.94956 | -3.37379 | 106 ft | 102 kts | 59° |
| 2026-05-05 17:23 | 55.95454 | -3.35904 | 356 ft | 160 kts | 61° |
| 2026-05-05 17:23 | 55.96055 | -3.34222 | 1609 ft | 158 kts | 55° |
| 2026-05-05 17:23 | 55.96907 | -3.32730 | 2560 ft | 183 kts | 42° |
| 2026-05-05 17:23 | 55.97911 | -3.31177 | 2977 ft | 207 kts | 43° |
| 2026-05-05 17:24 | 55.99035 | -3.29407 | 3527 ft | 220 kts | 42° |
| 2026-05-05 17:24 | 56.00367 | -3.28026 | 4075 ft | 234 kts | 11° |
| 2026-05-05 17:24 | 56.01939 | -3.28508 | 5048 ft | 233 kts | 332° |
| 2026-05-05 17:24 | 56.03085 | -3.30513 | 5708 ft | 235 kts | 299° |
| 2026-05-05 17:25 | 56.03338 | -3.33458 | 6166 ft | 256 kts | 263° |
| 2026-05-05 17:25 | 56.03059 | -3.35516 | 6870 ft | 257 kts | 258° |
| 2026-05-05 17:25 | 56.02418 | -3.39687 | 8172 ft | 261 kts | 258° |
| 2026-05-05 17:25 | 56.01931 | -3.42829 | 9184 ft | 265 kts | 257° |
| 2026-05-05 17:26 | 56.01443 | -3.46055 | 10066 ft | 271 kts | 258° |
| 2026-05-05 17:26 | 56.00967 | -3.49393 | 10683 ft | 288 kts | 258° |
| 2026-05-05 17:26 | 56.00456 | -3.53017 | 11041 ft | 310 kts | 258° |
| 2026-05-05 17:26 | 55.99919 | -3.56798 | 11829 ft | 316 kts | 258° |
| 2026-05-05 17:27 | 55.99373 | -3.60619 | 12735 ft | 319 kts | 257° |
| 2026-05-05 17:27 | 55.98820 | -3.64474 | 13663 ft | 322 kts | 257° |
| 2026-05-05 17:27 | 55.98259 | -3.68386 | 14482 ft | 326 kts | 257° |
| 2026-05-05 17:27 | 55.97699 | -3.72277 | 15254 ft | 330 kts | 257° |
| 2026-05-05 17:28 | 55.97125 | -3.76261 | 16033 ft | 334 kts | 257° |
| 2026-05-05 17:28 | 55.96541 | -3.80302 | 16854 ft | 336 kts | 257° |
| 2026-05-05 17:28 | 55.95960 | -3.84322 | 17830 ft | 334 kts | 257° |
| 2026-05-05 17:28 | 55.95380 | -3.88318 | 18821 ft | 330 kts | 257° |
| 2026-05-05 17:29 | 55.94798 | -3.92316 | 19673 ft | 328 kts | 257° |
| 2026-05-05 17:29 | 55.94228 | -3.96210 | 20478 ft | 328 kts | 256° |
| 2026-05-05 17:29 | 55.93357 | -4.00015 | 21317 ft | 330 kts | 242° |
| 2026-05-05 17:29 | 55.92119 | -4.03152 | 21797 ft | 335 kts | 232° |
| 2026-05-05 17:30 | 55.90461 | -4.06058 | 22073 ft | 336 kts | 221° |
| 2026-05-05 17:30 | 55.88555 | -4.08483 | 22078 ft | 337 kts | 217° |
| 2026-05-05 17:30 | 55.86609 | -4.10798 | 22073 ft | 336 kts | 217° |
| 2026-05-05 17:30 | 55.84662 | -4.13113 | 22079 ft | 335 kts | 217° |
| 2026-05-05 17:31 | 55.82738 | -4.15430 | 22084 ft | 334 kts | 217° |
| 2026-05-05 17:31 | 55.80819 | -4.17759 | 22103 ft | 334 kts | 217° |
| 2026-05-05 17:31 | 55.78899 | -4.20093 | 22101 ft | 334 kts | 218° |
| 2026-05-05 17:31 | 55.76987 | -4.22442 | 22102 ft | 334 kts | 218° |
| 2026-05-05 17:32 | 55.75072 | -4.24803 | 22098 ft | 334 kts | 218° |
| 2026-05-05 17:32 | 55.73160 | -4.27156 | 22091 ft | 335 kts | 218° |
| 2026-05-05 17:32 | 55.71248 | -4.29505 | 22092 ft | 335 kts | 218° |
| 2026-05-05 17:32 | 55.69337 | -4.31863 | 22076 ft | 335 kts | 218° |
| 2026-05-05 17:33 | 55.67447 | -4.34200 | 22082 ft | 335 kts | 218° |
| 2026-05-05 17:33 | 55.65513 | -4.36591 | 22083 ft | 336 kts | 218° |
| 2026-05-05 17:33 | 55.63596 | -4.38958 | 22079 ft | 336 kts | 218° |
| 2026-05-05 17:33 | 55.61672 | -4.41330 | 22079 ft | 337 kts | 218° |
| 2026-05-05 17:34 | 55.59750 | -4.43697 | 22072 ft | 337 kts | 218° |
| 2026-05-05 17:34 | 55.57827 | -4.46062 | 22067 ft | 337 kts | 218° |
| 2026-05-05 17:34 | 55.55895 | -4.48435 | 22060 ft | 337 kts | 218° |
| 2026-05-05 17:34 | 55.53996 | -4.50764 | 22075 ft | 337 kts | 218° |
| 2026-05-05 17:35 | 55.52067 | -4.53128 | 22072 ft | 337 kts | 218° |
| 2026-05-05 17:35 | 55.50138 | -4.55488 | 22079 ft | 337 kts | 218° |
| 2026-05-05 17:35 | 55.48214 | -4.57841 | 22074 ft | 338 kts | 218° |
| 2026-05-05 17:35 | 55.46278 | -4.60203 | 22071 ft | 338 kts | 218° |
| 2026-05-05 17:36 | 55.44350 | -4.62555 | 22071 ft | 337 kts | 218° |
| 2026-05-05 17:36 | 55.42425 | -4.64899 | 22065 ft | 337 kts | 218° |
| 2026-05-05 17:36 | 55.40492 | -4.67251 | 22066 ft | 336 kts | 218° |
| 2026-05-05 17:36 | 55.38571 | -4.69587 | 22042 ft | 336 kts | 218° |
| 2026-05-05 17:37 | 55.36648 | -4.71922 | 22052 ft | 336 kts | 218° |
| 2026-05-05 17:37 | 55.35374 | -4.73467 | 22044 ft | 336 kts | 217° |
| 2026-05-05 17:37 | 55.32798 | -4.76585 | 22045 ft | 336 kts | 217° |
| 2026-05-05 17:37 | 55.30848 | -4.78864 | 22040 ft | 338 kts | 213° |
| 2026-05-05 17:38 | 55.28773 | -4.80817 | 22052 ft | 339 kts | 210° |
| 2026-05-05 17:38 | 55.26659 | -4.82653 | 22049 ft | 339 kts | 209° |
| 2026-05-05 17:38 | 55.24569 | -4.84440 | 22039 ft | 340 kts | 209° |
| 2026-05-05 17:38 | 55.22447 | -4.86257 | 22046 ft | 340 kts | 209° |
| 2026-05-05 17:39 | 55.20325 | -4.88088 | 22049 ft | 340 kts | 209° |
| 2026-05-05 17:39 | 55.18207 | -4.89925 | 22039 ft | 340 kts | 210° |